Portada
METAR-TAF:

METAR-TAF

Aeropuertos :

Vientián, Laos

Aeropuerto Internacional Wattay

latitud: 17-57N, longitud: 102-34E, altitud: 171 m

Observación

El informe se hizo hace 34 minutos, a las 12:30 UTC
Viento 6 kt del este-sureste
Temperatura 24°C
Humedad 78%
Presión 1014 hPa
Visibilidad: 5000 m
Escasas nubes a una altura de 1600 ft
Nubes dispersas a una altura de 4000 ft
neblina

METAR: VLVT 261230Z 12006KT 5000 BR FEW016 SCT040 24/20 Q1014 NOSIG

Hora: 20:04 (13:04 UTC)

Pronóstico

El informe se hizo hace 2 horas y 4 minutos, a las 11:00 UTC
Pronóstico válido del 26 a las 12 UTC al 27 a las 12 UTC
Viento 8 kt del este-sureste
Visibilidad: 7000 m
Nubes dispersas a una altura de 1600 ft
Nubes dispersas a una altura de 5000 ft
Temporalmente
del 26 a las 14 UTC al 26 a las 20 UTC
Visibilidad: 4000 m
Nubes dispersas a una altura de 4000 ft
neblina

TAF: VLVT 261100Z 2612/2712 12008KT 7000 SCT016 SCT050 TEMPO 2614/2620 4000 BR SCT040

Observaciones y pronósticos meteorológicos de más de 4000 aeropuertos (mensajes METAR y TAF).

Los puntos amarillos y rojos representan las estaciones disponibles.

Ponga el ratón en el punto deseado para ver el nombre de la estación.

Haga clic para ver las observaciones y los pronósticos meteorológicos.

Para cambiar el mapa : haga clic en los botones verdes con una cruz de color negro para hacer un zoom, en el botón verde con un guión para alejar o en las flechas verdes para mapas adyacentes.


METAR-TAF: